Time;durP1;ratioP1;P1;durP2;ratioP2;P2;SDS_P1;SDS_P2;PMS_P1;PMS_P2;Temp;Humidity;BMP_temperature;BMP_pressure;BME280_temperature;BME280_humidity;BME280_pressure;Samples;Min_cycle;Max_cycle;Signal;HPM_P1;HPM_P2
2022/02/10 00:03:30;;;;;;;16.85;11.90;;;9.40;99.90;;;;;;5071275;28;20031;-59
2022/02/10 00:16:18;;;;;;;19.25;13.57;;;9.40;99.90;;;;;;5070953;28;20024;-59
2022/02/10 00:19:26;;;;;;;19.45;13.70;;;9.40;99.90;;;;;;5071145;28;20075;-59
2022/02/10 00:22:06;;;;;;;15.90;11.70;;;9.30;99.90;;;;;;5070777;28;20091;-59
2022/02/10 00:35:35;;;;;;;17.17;12.98;;;9.30;99.90;;;;;;5070969;28;20028;-59
2022/02/10 00:38:00;;;;;;;16.67;12.63;;;9.30;99.90;;;;;;5071154;28;20025;-59
2022/02/10 00:40:28;;;;;;;20.23;13.95;;;9.30;99.90;;;;;;5074129;28;20032;-59
2022/02/10 00:42:54;;;;;;;17.30;13.05;;;9.30;99.90;;;;;;5070602;28;20116;-59
2022/02/10 00:45:21;;;;;;;18.15;12.77;;;9.30;99.90;;;;;;5070618;28;20021;-59
2022/02/10 00:50:15;;;;;;;16.52;12.50;;;9.20;99.90;;;;;;5070996;28;20025;-59
2022/02/10 00:52:43;;;;;;;15.02;11.32;;;9.20;99.90;;;;;;5070671;28;20021;-59
2022/02/10 00:55:08;;;;;;;13.52;10.43;;;9.20;99.90;;;;;;5069387;28;20483;-59
2022/02/10 00:57:34;;;;;;;12.75;9.10;;;9.20;99.90;;;;;;5071595;28;20028;-59
2022/02/10 01:00:37;;;;;;;13.30;9.63;;;9.30;99.90;;;;;;5074347;28;20016;-59
2022/02/10 01:29:51;;;;;;;13.15;9.73;;;9.00;99.90;;;;;;5072227;28;20529;-59
2022/02/10 01:32:18;;;;;;;11.90;9.38;;;9.00;99.90;;;;;;5068217;28;20108;-59
2022/02/10 01:34:53;;;;;;;11.05;8.90;;;9.00;99.90;;;;;;5072443;28;20400;-59
2022/02/10 01:37:19;;;;;;;12.05;8.60;;;9.00;99.90;;;;;;5075665;28;20034;-59
2022/02/10 01:39:50;;;;;;;11.13;8.30;;;9.00;99.90;;;;;;5069812;28;20028;-59
2022/02/10 02:03:19;;;;;;;9.18;7.15;;;9.30;99.90;;;;;;5073632;28;20028;-59
2022/02/10 02:03:43;;;;;;;11.93;7.68;;;9.30;99.90;;;;;;5073216;28;20025;-59
2022/02/10 02:06:14;;;;;;;10.30;8.25;;;9.30;99.90;;;;;;5071950;28;20524;-59
2022/02/10 02:08:41;;;;;;;9.80;7.40;;;9.30;99.90;;;;;;5064915;28;20090;-59
2022/02/10 02:11:07;;;;;;;8.63;7.18;;;9.30;99.90;;;;;;5068762;28;20021;-59
2022/02/10 02:13:33;;;;;;;13.70;9.27;;;9.30;99.90;;;;;;5066787;28;20515;-59
2022/02/10 02:15:59;;;;;;;9.82;8.77;;;9.30;99.90;;;;;;5067531;28;20052;-59
2022/02/10 02:18:26;;;;;;;10.55;7.75;;;9.30;99.90;;;;;;5071627;28;20080;-59
2022/02/10 02:20:53;;;;;;;9.43;6.90;;;9.30;99.90;;;;;;5073154;28;20110;-59
2022/02/10 02:23:21;;;;;;;9.13;7.22;;;9.30;99.90;;;;;;5072629;28;20020;-59
2022/02/10 02:25:50;;;;;;;9.88;8.23;;;9.30;99.90;;;;;;5070205;28;20024;-59
2022/02/10 02:28:16;;;;;;;11.70;8.05;;;9.30;99.90;;;;;;5073204;28;20032;-59
2022/02/10 02:30:51;;;;;;;10.88;7.45;;;9.20;99.90;;;;;;5072717;28;20028;-59
2022/02/10 03:06:17;;;;;;;9.95;7.93;;;9.10;99.90;;;;;;5067512;28;20036;-59
2022/02/10 03:08:49;;;;;;;12.85;9.77;;;9.10;99.90;;;;;;5069832;28;20017;-59
2022/02/10 03:11:16;;;;;;;16.98;9.10;;;9.10;99.90;;;;;;5065618;28;20040;-59
2022/02/10 03:14:08;;;;;;;13.32;8.35;;;9.10;99.90;;;;;;5066551;28;20021;-59
2022/02/10 03:19:03;;;;;;;13.38;9.68;;;9.10;99.90;;;;;;5057176;28;20052;-59
2022/02/10 04:00:07;;;;;;;12.10;8.60;;;9.20;99.90;;;;;;5063460;28;20070;-59
2022/02/10 04:15:41;;;;;;;17.08;12.52;;;9.10;99.90;;;;;;5060577;28;20024;-59
2022/02/10 04:18:44;;;;;;;20.83;15.07;;;9.10;99.90;;;;;;5063145;28;20036;-59
2022/02/10 04:23:41;;;;;;;20.15;15.32;;;9.00;99.90;;;;;;5063312;28;20029;-59
2022/02/10 04:32:06;;;;;;;23.60;16.33;;;8.90;99.90;;;;;;5066947;28;20055;-59
2022/02/10 04:41:08;;;;;;;21.02;15.80;;;8.80;99.90;;;;;;5072738;28;20081;-59
2022/02/10 05:07:06;;;;;;;19.40;13.05;;;8.90;99.90;;;;;;5066926;28;20036;-59
2022/02/10 05:20:49;;;;;;;17.73;13.23;;;8.90;99.90;;;;;;5068781;28;20103;-59
2022/02/10 05:33:57;;;;;;;14.48;11.77;;;8.90;99.90;;;;;;5064510;28;20083;-59
2022/02/10 05:36:26;;;;;;;16.08;12.10;;;8.90;99.90;;;;;;5071503;28;20107;-59
2022/02/10 05:39:02;;;;;;;16.70;12.57;;;8.90;99.90;;;;;;5067506;28;20027;-59
2022/02/10 05:41:58;;;;;;;18.42;13.25;;;8.90;99.90;;;;;;5070388;28;20017;-59
2022/02/10 05:47:35;;;;;;;19.85;14.75;;;8.90;99.90;;;;;;5071625;28;20503;-59
2022/02/10 05:53:29;;;;;;;22.45;15.00;;;8.90;99.90;;;;;;5071525;28;20025;-59
2022/02/10 05:57:50;;;;;;;23.50;17.38;;;8.90;99.90;;;;;;5067960;28;20024;-59
2022/02/10 06:01:14;;;;;;;23.83;18.35;;;8.90;99.90;;;;;;5067580;28;20024;-59
2022/02/10 06:43:19;;;;;;;18.42;14.32;;;8.80;99.90;;;;;;5074081;28;20028;-59
2022/02/10 06:46:52;;;;;;;21.55;13.98;;;8.80;99.90;;;;;;5073948;28;20025;-59
2022/02/10 06:47:50;;;;;;;18.70;13.70;;;8.80;99.90;;;;;;5073995;28;20056;-59
2022/02/10 06:56:13;;;;;;;15.20;12.30;;;8.90;99.90;;;;;;5073125;28;20081;-59
2022/02/10 07:10:07;;;;;;;18.77;14.40;;;8.90;99.90;;;;;;5032558;28;20396;-59
2022/02/10 08:53:16;;;;;;;;;;;8.80;99.90;;;;;;5092766;28;20035;-59
2022/02/10 08:55:34;;;;;;;3.33;2.65;;;8.70;99.90;;;;;;5092416;28;20360;-59
2022/02/10 09:04:08;;;;;;;5.10;2.65;;;8.70;99.90;;;;;;5092331;28;20031;-59
2022/02/10 09:09:50;;;;;;;3.47;2.22;;;8.70;99.90;;;;;;5091248;28;20059;-60
2022/02/10 09:23:24;;;;;;;5.07;1.55;;;8.80;99.90;;;;;;5055694;28;20025;-59
2022/02/10 10:02:52;;;;;;;1.98;0.40;;;9.20;99.90;;;;;;5074922;28;20029;-59
2022/02/10 10:05:43;;;;;;;4.00;0.50;;;9.30;99.90;;;;;;5074859;28;20082;-59
2022/02/10 10:08:17;;;;;;;3.80;0.50;;;9.40;99.90;;;;;;5074596;28;20436;-59
2022/02/10 10:14:32;;;;;;;3.85;0.73;;;9.40;99.90;;;;;;5012987;28;20053;-59
2022/02/10 10:17:23;;;;;;;2.13;0.50;;;9.50;99.90;;;;;;5074411;28;20105;-59
2022/02/10 10:23:21;;;;;;;2.50;0.50;;;9.40;99.90;;;;;;5012604;28;20133;-60
2022/02/10 10:44:35;;;;;;;4.35;0.98;;;9.70;99.90;;;;;;5074492;28;20021;-59
2022/02/10 10:54:06;;;;;;;;;;;10.00;99.90;;;;;;5054831;28;20037;-59
2022/02/10 10:56:31;;;;;;;4.50;1.30;;;10.00;99.90;;;;;;5053431;28;19909;-59
2022/02/10 11:36:25;;;;;;;5.43;2.67;;;10.70;99.90;;;;;;5070019;28;20089;-59
2022/02/10 11:39:14;;;;;;;4.22;2.30;;;11.50;99.30;;;;;;5068065;28;20441;-59
2022/02/10 11:42:52;;;;;;;4.47;2.08;;;11.90;99.10;;;;;;5064894;28;20025;-59
2022/02/10 12:36:30;;;;;;;5.70;3.20;;;11.20;95.00;;;;;;5069216;28;20032;-59
2022/02/10 12:39:47;;;;;;;8.88;4.32;;;11.30;94.70;;;;;;5069156;28;20442;-59
2022/02/10 13:26:24;;;;;;;4.18;1.20;;;10.70;92.50;;;;;;5072509;28;20048;-59
2022/02/10 14:12:40;;;;;;;5.68;1.73;;;10.10;94.40;;;;;;5063268;28;20384;-60
2022/02/10 14:17:16;;;;;;;6.25;1.10;;;10.10;94.50;;;;;;5063442;28;20045;-59
2022/02/10 14:19:47;;;;;;;3.45;1.10;;;10.10;94.30;;;;;;5068081;28;20025;-59
2022/02/10 14:27:47;;;;;;;8.35;0.90;;;10.00;93.40;;;;;;5070719;28;20221;-59
2022/02/10 14:30:14;;;;;;;3.95;0.73;;;9.90;93.30;;;;;;5070945;28;20163;-59
2022/02/10 14:32:43;;;;;;;5.22;0.73;;;9.90;93.40;;;;;;5058063;28;20100;-59
2022/02/10 14:35:25;;;;;;;4.18;0.70;;;9.90;93.40;;;;;;5056721;28;20028;-59
2022/02/10 14:38:16;;;;;;;2.95;0.63;;;9.80;93.30;;;;;;5071358;28;20037;-59
2022/02/10 15:10:47;;;;;;;2.75;0.60;;;9.80;93.30;;;;;;5067174;28;20544;-59
2022/02/10 15:29:17;;;;;;;7.53;1.00;;;9.90;93.60;;;;;;5066221;28;20059;-59
2022/02/10 15:31:43;;;;;;;4.68;1.30;;;9.80;93.60;;;;;;5092930;28;20082;-59
2022/02/10 15:48:33;;;;;;;6.85;2.45;;;9.50;94.10;;;;;;5093188;28;20035;-60
2022/02/10 15:52:41;;;;;;;5.88;1.08;;;9.40;94.30;;;;;;5070368;28;20028;-59
2022/02/10 16:17:08;;;;;;;4.72;0.73;;;9.20;94.10;;;;;;5072714;28;20060;-59
2022/02/10 16:20:07;;;;;;;7.57;0.77;;;9.20;94.00;;;;;;5088157;28;20055;-59
2022/02/10 16:22:38;;;;;;;6.93;0.73;;;9.10;93.80;;;;;;5071788;28;20442;-59
2022/02/10 16:25:09;;;;;;;3.35;0.52;;;9.00;93.80;;;;;;5070907;28;20078;-59
2022/02/10 16:27:36;;;;;;;3.83;0.88;;;9.00;93.90;;;;;;5075720;28;20046;-60
2022/02/10 16:30:24;;;;;;;5.70;0.75;;;9.00;93.80;;;;;;5077608;28;20066;-60
2022/02/10 16:32:50;;;;;;;5.53;1.15;;;9.00;93.60;;;;;;5077072;28;20106;-59
2022/02/10 16:35:16;;;;;;;4.85;0.90;;;8.90;93.40;;;;;;5078349;28;20032;-59
2022/02/10 16:37:44;;;;;;;4.30;0.68;;;8.90;93.40;;;;;;5095089;28;20041;-59
2022/02/10 16:40:11;;;;;;;2.33;0.70;;;8.90;93.40;;;;;;5077901;28;20077;-59
2022/02/10 16:43:02;;;;;;;;;;;;;;;;;;;;;
2022/02/10 16:45:28;;;;;;;7.55;1.92;;;8.90;93.50;;;;;;5078880;28;20035;-60
2022/02/10 16:47:55;;;;;;;5.82;1.48;;;8.80;93.50;;;;;;5078270;28;20092;-60
2022/02/10 16:50:24;;;;;;;5.43;1.10;;;8.80;93.60;;;;;;5078198;28;20031;-60
2022/02/10 16:53:00;;;;;;;4.70;0.80;;;8.80;93.70;;;;;;5076705;28;20016;-59
2022/02/10 17:14:31;;;;;;;6.28;1.00;;;8.50;94.10;;;;;;5077497;28;20135;-59
2022/02/10 17:27:43;;;;;;;6.32;1.05;;;8.40;94.20;;;;;;5082434;28;20055;-59
2022/02/10 17:52:10;;;;;;;5.13;0.93;;;8.10;94.30;;;;;;5075779;28;20119;-60
2022/02/10 17:54:35;;;;;;;4.70;0.70;;;8.10;94.40;;;;;;5074633;28;20552;-59
2022/02/10 17:57:01;;;;;;;6.13;1.00;;;8.10;94.50;;;;;;5073896;28;20104;-60
2022/02/10 17:59:28;;;;;;;5.03;0.90;;;8.10;94.60;;;;;;5074433;28;20060;-60
2022/02/10 18:01:53;;;;;;;3.92;0.70;;;8.10;94.70;;;;;;5074579;28;20025;-60
2022/02/10 18:04:20;;;;;;;4.20;0.73;;;8.00;94.70;;;;;;5074560;28;20036;-59
2022/02/10 18:06:52;;;;;;;4.28;0.88;;;8.00;94.80;;;;;;5063596;28;20389;-60
2022/02/10 18:09:40;;;;;;;3.20;0.80;;;8.00;94.80;;;;;;5073145;28;20078;-60
2022/02/10 18:19:54;;;;;;;3.72;0.80;;;8.00;95.00;;;;;;5067986;28;20048;-60
2022/02/10 18:27:29;;;;;;;2.78;0.68;;;7.90;95.10;;;;;;5055915;28;20029;-59
2022/02/10 18:54:25;;;;;;;6.97;1.30;;;7.80;94.80;;;;;;5091383;28;20113;-59
2022/02/10 19:08:07;;;;;;;5.38;0.93;;;7.60;94.70;;;;;;5070467;28;20017;-59
2022/02/10 19:10:35;;;;;;;3.83;0.93;;;7.60;94.70;;;;;;5070846;28;20054;-59
2022/02/10 19:13:01;;;;;;;4.03;1.00;;;7.60;94.70;;;;;;5069492;28;20013;-59
2022/02/10 19:15:33;;;;;;;4.80;1.00;;;7.60;94.70;;;;;;5069623;28;20067;-59
2022/02/10 19:18:03;;;;;;;5.43;1.10;;;7.50;94.70;;;;;;5069359;28;20059;-59
2022/02/10 19:20:29;;;;;;;;;;;7.50;94.60;;;;;;5070602;28;20112;-59
2022/02/10 19:22:54;;;;;;;3.05;0.90;;;7.50;94.70;;;;;;5070584;28;20011;-60
2022/02/10 19:25:20;;;;;;;3.40;1.05;;;7.40;94.80;;;;;;5065563;28;20040;-60
2022/02/10 19:27:48;;;;;;;4.25;1.05;;;7.40;94.80;;;;;;5074188;28;20024;-59
2022/02/10 19:30:16;;;;;;;4.15;1.02;;;7.40;94.80;;;;;;5090486;28;20067;-59
2022/02/10 19:32:47;;;;;;;2.33;0.80;;;7.40;94.80;;;;;;5090626;28;20024;-59
2022/02/10 19:35:15;;;;;;;4.82;0.93;;;7.40;94.80;;;;;;5083160;28;20119;-59
2022/02/10 19:37:41;;;;;;;3.40;1.00;;;7.40;94.80;;;;;;5069464;28;20032;-60
2022/02/10 19:40:07;;;;;;;3.25;0.90;;;7.40;94.70;;;;;;5070149;28;20040;-59
2022/02/10 19:42:35;;;;;;;2.30;0.60;;;7.40;94.70;;;;;;5070203;28;20032;-59
2022/02/10 19:45:04;;;;;;;5.55;1.75;;;7.40;94.60;;;;;;5064311;28;20064;-59
2022/02/10 19:47:31;;;;;;;3.00;0.88;;;7.30;94.40;;;;;;5048237;28;20424;-59
2022/02/10 19:49:58;;;;;;;3.70;0.90;;;7.30;94.40;;;;;;5050111;28;20078;-59
2022/02/10 19:52:25;;;;;;;7.25;1.27;;;7.30;94.40;;;;;;5053313;28;20036;-59
2022/02/10 19:54:54;;;;;;;4.95;1.13;;;7.30;94.40;;;;;;5048458;28;20420;-59
2022/02/10 19:57:22;;;;;;;3.25;0.73;;;7.30;94.40;;;;;;5049968;28;20378;-59
2022/02/10 19:59:48;;;;;;;2.63;0.60;;;7.20;94.40;;;;;;5052534;28;20127;-60
2022/02/10 20:02:16;;;;;;;2.75;0.70;;;7.20;94.50;;;;;;5068681;28;20111;-59
2022/02/10 20:05:25;;;;;;;6.78;0.95;;;7.20;94.50;;;;;;5069382;28;20078;-59
2022/02/10 20:07:52;;;;;;;3.92;0.70;;;7.20;94.60;;;;;;5067645;28;20025;-60
2022/02/10 20:10:18;;;;;;;3.10;1.05;;;7.20;94.70;;;;;;5069567;28;20107;-59
2022/02/10 20:12:44;;;;;;;3.25;0.75;;;7.10;94.70;;;;;;5069520;28;20024;-59
2022/02/10 20:15:12;;;;;;;5.00;0.95;;;7.10;94.80;;;;;;5069670;28;20039;-59
2022/02/10 20:17:38;;;;;;;2.20;0.82;;;7.10;94.90;;;;;;5068835;28;21053;-59
2022/02/10 20:20:05;;;;;;;7.47;1.83;;;7.10;94.90;;;;;;5066677;28;20028;-60
2022/02/10 20:22:35;;;;;;;5.28;1.50;;;7.00;94.90;;;;;;5054739;28;20029;-59
2022/02/10 20:25:07;;;;;;;4.80;1.10;;;6.90;95.00;;;;;;5048066;28;20056;-60
2022/02/10 20:27:35;;;;;;;4.20;1.45;;;6.90;95.20;;;;;;5049419;28;20040;-59
2022/02/10 20:30:01;;;;;;;3.25;1.00;;;6.80;95.30;;;;;;5049488;28;20021;-60
2022/02/10 20:32:26;;;;;;;7.00;1.17;;;6.80;95.40;;;;;;5048987;28;20029;-59
2022/02/10 20:34:54;;;;;;;4.60;0.85;;;6.80;95.50;;;;;;5052824;28;20044;-60
2022/02/10 20:37:22;;;;;;;5.22;1.30;;;6.80;95.60;;;;;;5069376;28;20031;-59
2022/02/10 20:39:47;;;;;;;6.10;1.10;;;6.70;95.70;;;;;;5069586;28;20468;-59
2022/02/10 20:42:17;;;;;;;6.93;1.40;;;6.70;95.80;;;;;;5069378;28;20082;-59
2022/02/10 20:44:45;;;;;;;3.22;0.75;;;6.80;95.80;;;;;;5069202;28;20105;-59
2022/02/10 20:47:14;;;;;;;3.60;0.98;;;6.80;95.90;;;;;;5068452;28;20032;-59
2022/02/10 20:49:40;;;;;;;5.20;1.55;;;6.80;95.90;;;;;;5069872;28;20016;-59
2022/02/10 20:52:05;;;;;;;3.42;1.15;;;6.70;95.90;;;;;;5069617;28;20433;-59
2022/02/10 20:54:31;;;;;;;4.63;1.10;;;6.70;96.00;;;;;;5069578;28;20036;-59
2022/02/10 20:56:57;;;;;;;5.68;1.05;;;6.60;96.10;;;;;;5065949;28;20040;-59
2022/02/10 20:59:35;;;;;;;5.15;1.17;;;6.60;96.20;;;;;;5069300;28;20395;-60
2022/02/10 21:02:13;;;;;;;5.05;1.25;;;6.60;96.30;;;;;;5067707;28;20028;-59
2022/02/10 21:04:54;;;;;;;6.15;1.30;;;6.60;96.40;;;;;;5069326;28;20099;-59
2022/02/10 21:10:04;;;;;;;3.60;0.93;;;6.50;96.50;;;;;;5069455;28;20016;-59
2022/02/10 21:12:32;;;;;;;9.57;1.60;;;6.40;96.60;;;;;;5067070;28;20032;-60
2022/02/10 21:15:00;;;;;;;4.50;1.25;;;6.40;96.60;;;;;;5069060;28;20514;-59
2022/02/10 21:17:28;;;;;;;3.60;0.82;;;6.40;96.60;;;;;;5072810;28;20029;-59
2022/02/10 21:19:59;;;;;;;3.95;1.00;;;6.30;96.60;;;;;;5073016;28;20032;-59
2022/02/10 21:22:26;;;;;;;4.15;1.10;;;6.40;96.70;;;;;;5072684;28;20430;-60
2022/02/10 21:25:02;;;;;;;4.68;1.42;;;6.30;96.60;;;;;;5072302;28;20036;-59
2022/02/10 21:27:39;;;;;;;3.10;0.85;;;6.30;96.60;;;;;;5072246;28;20098;-59
2022/02/10 21:30:07;;;;;;;5.70;0.90;;;6.20;96.60;;;;;;5071020;28;20025;-60
2022/02/10 21:32:38;;;;;;;6.05;0.70;;;6.20;96.60;;;;;;5065708;28;20419;-59
2022/02/10 21:37:43;;;;;;;5.60;0.95;;;6.20;96.50;;;;;;5072793;28;20485;-60
2022/02/10 21:40:24;;;;;;;3.95;0.80;;;6.20;96.50;;;;;;5071894;28;20040;-59
2022/02/10 21:48:22;;;;;;;2.80;0.70;;;6.10;96.60;;;;;;5072220;28;20060;-59
2022/02/10 21:59:19;;;;;;;2.75;0.70;;;6.10;96.80;;;;;;5072076;28;20515;-60
2022/02/10 22:16:25;;;;;;;4.32;0.80;;;6.00;97.10;;;;;;5069940;28;20021;-59
2022/02/10 22:20:46;;;;;;;5.18;1.15;;;5.80;97.30;;;;;;5071647;28;20159;-59
2022/02/10 22:23:19;;;;;;;4.07;0.90;;;5.80;97.40;;;;;;5083564;28;20028;-60
2022/02/10 22:25:46;;;;;;;8.48;1.30;;;5.80;97.50;;;;;;5067228;28;20028;-59
2022/02/10 22:36:22;;;;;;;5.50;1.65;;;5.70;97.90;;;;;;5065032;28;20443;-59
2022/02/10 22:38:52;;;;;;;5.47;1.65;;;5.70;98.00;;;;;;5065577;28;20025;-60
2022/02/10 22:41:18;;;;;;;3.25;1.55;;;5.70;98.10;;;;;;5061573;28;20032;-59
2022/02/10 22:43:47;;;;;;;6.00;1.30;;;5.60;98.20;;;;;;5063494;28;20089;-59
2022/02/10 22:46:15;;;;;;;4.80;1.52;;;5.60;98.30;;;;;;5061336;28;20567;-59
2022/02/10 22:48:43;;;;;;;4.38;1.33;;;5.60;98.40;;;;;;5071245;28;20447;-59
2022/02/10 22:51:09;;;;;;;5.40;1.20;;;5.50;98.40;;;;;;5057457;28;20070;-59
2022/02/10 22:53:35;;;;;;;8.40;1.30;;;5.50;98.50;;;;;;5067022;28;20055;-59
2022/02/10 22:56:00;;;;;;;3.78;1.10;;;5.50;98.50;;;;;;5066172;28;20075;-59
2022/02/10 22:58:26;;;;;;;2.88;1.00;;;5.50;98.60;;;;;;5067466;28;20421;-59
2022/02/10 23:00:53;;;;;;;3.35;1.20;;;5.40;98.60;;;;;;5061922;28;20049;-59
2022/02/10 23:03:25;;;;;;;7.38;1.75;;;5.40;98.70;;;;;;5064671;28;20024;-59
2022/02/10 23:05:51;;;;;;;7.32;1.20;;;5.40;98.80;;;;;;5059160;28;20025;-59
2022/02/10 23:08:18;;;;;;;3.55;1.27;;;5.30;98.80;;;;;;5066887;28;20518;-59
2022/02/10 23:10:50;;;;;;;6.25;1.33;;;5.30;98.90;;;;;;5062808;28;20028;-59
2022/02/10 23:13:22;;;;;;;6.05;1.35;;;5.30;99.00;;;;;;5063708;28;20016;-59
2022/02/10 23:15:50;;;;;;;9.90;1.75;;;5.20;99.10;;;;;;5063163;28;20024;-59
2022/02/10 23:18:17;;;;;;;5.50;1.40;;;5.20;99.20;;;;;;5069729;28;20132;-59
2022/02/10 23:20:44;;;;;;;7.90;1.50;;;5.20;99.30;;;;;;5059974;28;20032;-59
2022/02/10 23:23:11;;;;;;;6.07;1.52;;;5.10;99.60;;;;;;5063526;28;20035;-59
2022/02/10 23:25:38;;;;;;;6.80;1.58;;;5.20;99.40;;;;;;5066803;28;20029;-59
2022/02/10 23:28:07;;;;;;;7.10;1.50;;;5.10;99.50;;;;;;5064132;28;20016;-59
2022/02/10 23:30:33;;;;;;;6.90;1.67;;;5.10;99.60;;;;;;5066792;28;20025;-59
2022/02/10 23:33:07;;;;;;;7.25;1.92;;;5.10;99.70;;;;;;5073985;28;20469;-59
2022/02/10 23:38:20;;;;;;;6.97;1.90;;;5.00;99.90;;;;;;5066133;28;20066;-59
2022/02/10 23:41:30;;;;;;;5.10;1.58;;;5.00;99.90;;;;;;5063817;28;20025;-60
2022/02/10 23:43:44;;;;;;;6.05;1.92;;;5.00;99.90;;;;;;5064244;28;20032;-59
2022/02/10 23:46:10;;;;;;;5.50;1.52;;;5.00;99.90;;;;;;5061327;28;20027;-59
2022/02/10 23:48:36;;;;;;;5.05;1.50;;;5.00;99.90;;;;;;5058026;28;20017;-59
2022/02/10 23:51:02;;;;;;;6.13;1.33;;;4.90;99.90;;;;;;5065225;28;20469;-59
2022/02/10 23:53:28;;;;;;;4.22;1.10;;;5.00;99.90;;;;;;5062276;28;20478;-59
2022/02/10 23:55:55;;;;;;;5.57;1.33;;;4.90;99.90;;;;;;5062163;28;20491;-59
2022/02/10 23:58:33;;;;;;;3.00;1.33;;;4.90;99.90;;;;;;5068978;28;20393;-59
